Time;durP1;ratioP1;P1;durP2;ratioP2;P2;SDS_P1;SDS_P2;PMS_P1;PMS_P2;Temp;Humidity;BMP_temperature;BMP_pressure;BME280_temperature;BME280_humidity;BME280_pressure;Samples;Min_cycle;Max_cycle;Signal;HPM_P1;HPM_P2
2023/04/13 00:00:34;;;;;;;4.38;2.50;;;;;;;9.54;100.00;99203.59;5035115;28;20118;-67
2023/04/13 00:03:00;;;;;;;5.13;3.30;;;;;;;9.90;100.00;99253.88;5052845;28;20036;-68
2023/04/13 00:05:27;;;;;;;6.53;3.50;;;;;;;9.70;100.00;99182.72;5052239;28;20059;-68
2023/04/13 00:07:53;;;;;;;4.80;3.00;;;;;;;9.52;100.00;98874.72;5053130;28;20086;-68
2023/04/13 00:10:20;;;;;;;5.63;3.60;;;;;;;9.36;100.00;98817.91;5052946;28;20396;-70
2023/04/13 00:12:47;;;;;;;9.00;3.75;;;;;;;9.92;100.00;99026.19;5052978;28;20033;-69
2023/04/13 00:15:14;;;;;;;6.38;3.92;;;;;;;9.32;100.00;99097.88;5052556;28;20130;-69
2023/04/13 00:17:41;;;;;;;8.25;3.75;;;;;;;9.78;100.00;99393.91;5051754;28;20037;-69
2023/04/13 00:20:11;;;;;;;8.05;3.42;;;;;;;9.76;100.00;99443.91;5052776;28;20096;-70
2023/04/13 00:22:38;;;;;;;7.05;2.97;;;;;;;9.68;100.00;99482.22;5052917;28;20035;-70
2023/04/13 00:25:04;;;;;;;6.85;3.15;;;;;;;9.29;100.00;99389.66;5052728;28;20029;-69
2023/04/13 00:27:29;;;;;;;5.28;2.95;;;;;;;9.49;100.00;99430.41;5050127;28;20410;-69
2023/04/13 00:29:55;;;;;;;6.38;3.00;;;;;;;9.78;100.00;99425.22;5050953;28;20033;-69
2023/04/13 00:32:25;;;;;;;5.63;3.53;;;;;;;9.47;100.00;99442.31;5034362;28;20032;-73
2023/04/13 00:34:51;;;;;;;3.70;2.72;;;;;;;9.43;100.00;99430.59;5052464;28;20029;-70
2023/04/13 00:37:17;;;;;;;4.70;3.03;;;;;;;9.10;100.00;99379.25;5052567;28;20033;-69
2023/04/13 00:39:45;;;;;;;6.25;3.10;;;;;;;8.92;100.00;99425.44;5052270;28;20025;-69
2023/04/13 00:42:11;;;;;;;4.72;2.95;;;;;;;8.44;100.00;99412.50;5034602;28;20028;-69
2023/04/13 00:44:37;;;;;;;4.55;3.00;;;;;;;8.41;100.00;99407.56;5052467;28;20061;-71
2023/04/13 00:47:04;;;;;;;8.50;3.17;;;;;;;8.59;100.00;99490.63;5052111;28;20079;-70
2023/04/13 00:49:32;;;;;;;7.00;4.05;;;;;;;7.88;100.00;99452.00;5034447;28;20032;-69
2023/04/13 00:52:00;;;;;;;5.32;3.80;;;;;;;8.39;100.00;99530.84;5052370;28;20032;-70
2023/04/13 00:54:26;;;;;;;6.53;3.88;;;;;;;8.13;100.00;99495.22;5051867;28;20500;-69
2023/04/13 00:56:53;;;;;;;5.72;3.85;;;;;;;7.80;100.00;99518.84;5051395;28;20131;-69
2023/04/13 00:59:19;;;;;;;5.28;3.63;;;;;;;7.87;100.00;99574.34;5050947;28;20123;-70
2023/04/13 01:01:45;;;;;;;7.18;3.90;;;;;;;7.87;100.00;99566.75;5033561;28;20079;-70
2023/04/13 01:04:12;;;;;;;7.10;3.63;;;;;;;7.86;100.00;99577.72;5051001;28;20029;-70
2023/04/13 01:06:43;;;;;;;5.75;3.30;;;;;;;8.47;100.00;99688.53;5051796;28;20064;-70
2023/04/13 01:09:17;;;;;;;4.88;3.33;;;;;;;7.80;100.00;99658.81;5051735;28;20530;-68
2023/04/13 01:11:55;;;;;;;5.65;3.85;;;;;;;8.29;100.00;99711.75;5050284;28;20033;-69
2023/04/13 01:14:32;;;;;;;6.97;3.83;;;;;;;8.23;100.00;99695.81;5046605;28;20135;-70
2023/04/13 01:17:02;;;;;;;5.90;3.45;;;;;;;7.66;100.00;99629.66;5051964;28;20136;-70
2023/04/13 01:19:55;;;;;;;5.13;3.70;;;;;;;8.20;100.00;99713.63;5051740;28;20033;-70
2023/04/13 01:22:26;;;;;;;4.95;3.38;;;;;;;7.84;100.00;99649.50;5050379;28;20028;-68
2023/04/13 01:25:13;;;;;;;4.03;3.33;;;;;;;7.96;100.00;99722.59;5050308;28;20116;-68
2023/04/13 01:27:59;;;;;;;6.13;3.83;;;;;;;8.11;100.00;99736.59;5051394;28;20518;-69
2023/04/13 01:30:27;;;;;;;3.80;3.40;;;;;;;7.74;100.00;99727.25;5050533;28;20152;-69
2023/04/13 01:32:53;;;;;;;6.50;4.00;;;;;;;7.68;100.00;99691.16;5051392;28;20035;-69
2023/04/13 01:35:24;;;;;;;4.53;4.05;;;;;;;7.40;100.00;99750.75;5033492;28;20025;-69
2023/04/13 01:37:50;;;;;;;6.22;4.50;;;;;;;7.74;100.00;99777.06;5051568;28;20029;-70
2023/04/13 01:40:16;;;;;;;4.60;4.20;;;;;;;7.24;100.00;99683.63;5051137;28;20486;-68
2023/04/13 01:42:42;;;;;;;9.90;4.43;;;;;;;7.87;100.00;99786.88;5033082;28;20028;-68
2023/04/13 01:45:19;;;;;;;6.05;4.43;;;;;;;7.73;100.00;99781.25;5050984;28;20470;-68
2023/04/13 01:48:27;;;;;;;4.60;3.92;;;;;;;7.94;100.00;99812.06;5049579;28;20082;-69
2023/04/13 01:51:00;;;;;;;8.23;4.30;;;;;;;7.66;100.00;99769.63;5051089;28;20040;-68
2023/04/13 01:53:34;;;;;;;4.82;4.20;;;;;;;6.90;100.00;99733.94;5051085;28;20029;-72
2023/04/13 01:56:04;;;;;;;5.85;3.95;;;;;;;6.70;100.00;99731.75;5032954;28;20033;-68
2023/04/13 01:58:32;;;;;;;5.13;4.10;;;;;;;6.93;100.00;99772.63;5032295;28;20045;-69
2023/04/13 02:00:58;;;;;;;4.43;3.78;;;;;;;6.72;100.00;99751.94;5051025;28;20033;-69
2023/04/13 02:03:24;;;;;;;10.43;4.22;;;;;;;6.88;100.00;99799.66;5051056;28;20033;-69
2023/04/13 02:05:49;;;;;;;5.25;4.03;;;;;;;7.28;100.00;99815.00;5051262;28;20449;-69
2023/04/13 02:08:17;;;;;;;6.15;3.83;;;;;;;7.26;100.00;99834.41;5032540;28;20463;-68
2023/04/13 02:10:43;;;;;;;5.30;4.13;;;;;;;6.95;100.00;99798.69;5032705;28;20060;-69
2023/04/13 02:13:09;;;;;;;6.50;4.50;;;;;;;6.64;100.00;99769.75;5049263;28;20032;-69
2023/04/13 02:15:38;;;;;;;6.20;4.30;;;;;;;6.98;100.00;99747.28;5050830;28;20029;-69
2023/04/13 02:18:05;;;;;;;11.15;8.02;;;;;;;7.39;100.00;99820.69;5050342;28;20029;-70
2023/04/13 02:20:44;;;;;;;7.97;6.03;;;;;;;6.90;100.00;99744.91;5032501;28;20032;-69
2023/04/13 02:23:13;;;;;;;7.13;5.25;;;;;;;7.39;100.00;99820.69;5032901;28;20089;-68
2023/04/13 02:25:42;;;;;;;5.82;4.95;;;;;;;7.19;100.00;99746.91;5049365;28;20514;-68
2023/04/13 02:28:09;;;;;;;5.90;5.20;;;;;;;7.47;100.00;99823.91;5050413;28;20025;-69
2023/04/13 02:30:34;;;;;;;6.70;5.60;;;;;;;7.38;100.00;99824.09;5050529;28;20025;-69
2023/04/13 02:52:38;;;;;;;6.22;5.00;;;;;;;6.93;100.00;99673.28;5130508;27;20386;-81
2023/04/13 02:55:04;;;;;;;7.70;5.63;;;;;;;7.23;100.00;99687.03;5130339;27;20043;-84
2023/04/13 02:57:30;;;;;;;11.98;7.75;;;;;;;7.09;100.00;99711.72;5130318;27;20027;-81
2023/04/13 02:59:58;;;;;;;36.35;18.42;;;;;;;6.62;100.00;99669.59;5129642;28;20046;-81
2023/04/13 03:02:26;;;;;;;35.33;17.52;;;;;;;7.09;100.00;99731.94;5130061;27;20062;-80
2023/04/13 03:04:52;;;;;;;19.95;12.00;;;;;;;6.77;100.00;99677.75;5129841;28;20473;-81
2023/04/13 03:07:17;;;;;;;25.40;14.38;;;;;;;6.57;100.00;99657.06;5128916;28;20035;-77
2023/04/13 03:09:43;;;;;;;19.73;11.63;;;;;;;6.56;100.00;99715.16;5130094;27;20047;-77
2023/04/13 03:12:09;;;;;;;13.05;7.55;;;;;;;6.73;100.00;99759.50;5128902;28;20039;-81
2023/04/13 03:14:35;;;;;;;7.18;5.70;;;;;;;6.66;100.00;99717.50;5130369;27;20035;-77
2023/04/13 03:17:03;;;;;;;7.95;6.15;;;;;;;6.59;100.00;99715.97;5130586;27;20023;-77
2023/04/13 03:19:30;;;;;;;15.80;11.23;;;;;;;6.27;100.00;99722.34;5128675;28;20059;-76
2023/04/13 03:21:56;;;;;;;9.23;7.93;;;;;;;6.14;100.00;99799.91;5128772;27;20123;-77
2023/04/13 03:24:22;;;;;;;8.45;5.93;;;;;;;6.13;100.00;99800.78;5129519;27;20051;-77
2023/04/13 03:26:48;;;;;;;16.27;8.95;;;;;;;5.83;100.00;99759.13;5128192;28;20024;-77
2023/04/13 03:29:13;;;;;;;15.55;9.98;;;;;;;6.19;100.00;99799.84;5130111;27;20038;-77
2023/04/13 03:31:39;;;;;;;12.63;8.52;;;;;;;6.10;100.00;99809.22;5129043;27;20481;-78
2023/04/13 03:34:11;;;;;;;10.18;6.93;;;;;;;5.83;100.00;99761.66;5163201;27;20053;-79
2023/04/13 03:36:36;;;;;;;;;;;;;;;6.07;100.00;99804.22;5129448;27;20070;-81
2023/04/13 03:39:01;;;;;;;8.70;6.68;;;;;;;6.21;100.00;99800.69;5130038;27;19911;-78
2023/04/13 03:41:27;;;;;;;8.82;4.97;;;;;;;6.29;100.00;99763.53;5127990;28;20031;-77
2023/04/13 03:43:52;;;;;;;7.90;5.43;;;;;;;6.26;100.00;99825.00;5115432;28;20035;-77
2023/04/13 03:46:18;;;;;;;6.38;4.80;;;;;;;6.23;100.00;99756.91;5108445;28;20039;-75
2023/04/13 03:48:43;;;;;;;8.70;5.95;;;;;;;6.05;100.00;99780.69;5107889;28;20057;-76
2023/04/13 03:51:08;;;;;;;8.60;5.43;;;;;;;6.26;100.00;99903.22;5124892;27;20090;-77
2023/04/13 03:53:35;;;;;;;9.32;5.40;;;;;;;5.97;100.00;99862.38;5094053;28;20055;-77
2023/04/13 03:56:01;;;;;;;8.60;6.20;;;;;;;6.18;100.00;99922.66;5093629;28;20066;-77
2023/04/13 03:58:26;;;;;;;9.27;5.78;;;;;;;6.36;100.00;99937.59;5094863;28;20032;-77
2023/04/13 04:00:52;;;;;;;7.53;5.93;;;;;;;6.36;100.00;99940.13;5122309;27;20031;-79
2023/04/13 04:03:17;;;;;;;6.38;5.25;;;;;;;6.69;100.00;99889.22;5135153;27;20035;-80
2023/04/13 04:05:43;;;;;;;10.45;5.75;;;;;;;6.50;100.00;99955.97;5130105;27;20361;-78
2023/04/13 04:08:08;;;;;;;13.05;6.32;;;;;;;6.82;100.00;99960.59;5135158;27;20034;-78
2023/04/13 04:10:34;;;;;;;7.93;6.38;;;;;;;6.29;100.00;99925.94;5135549;27;20058;-78
2023/04/13 04:12:59;;;;;;;8.40;6.47;;;;;;;6.71;100.00;99978.44;5134507;27;20597;-76
2023/04/13 04:15:25;;;;;;;9.80;6.03;;;;;;;6.97;100.00;99978.09;5119842;27;20031;-78
2023/04/13 04:17:50;;;;;;;7.22;5.75;;;;;;;7.03;100.00;99984.75;5118831;27;20401;-78
2023/04/13 04:20:18;;;;;;;7.88;5.88;;;;;;;7.18;100.00;99987.91;5117363;27;20066;-79
2023/04/13 04:22:46;;;;;;;12.38;6.90;;;;;;;7.30;100.00;100017.22;5114085;28;20085;-78
2023/04/13 04:25:19;;;;;;;16.05;10.88;;;;;;;7.28;100.00;100089.72;5114918;28;20020;-81
2023/04/13 04:27:45;;;;;;;13.23;8.63;;;;;;;7.01;100.00;100109.44;5115014;28;20055;-81
2023/04/13 04:30:12;;;;;;;13.55;8.88;;;;;;;6.74;100.00;100061.75;5115184;28;20058;-79
2023/04/13 04:32:53;;;;;;;13.55;9.45;;;;;;;6.99;100.00;100125.50;5113881;28;20023;-79
2023/04/13 04:35:31;;;;;;;12.32;9.85;;;;;;;7.16;100.00;100132.84;5115114;28;20030;-78
2023/04/13 04:37:59;;;;;;;12.85;10.23;;;;;;;6.65;100.00;100066.91;5115061;28;20023;-78
2023/04/13 04:40:25;;;;;;;12.38;8.82;;;;;;;6.93;100.00;100133.13;5115071;28;20119;-77
2023/04/13 04:42:50;;;;;;;8.80;6.15;;;;;;;7.03;100.00;100154.94;5114786;28;20059;-80
2023/04/13 04:45:19;;;;;;;7.70;5.90;;;;;;;6.81;100.00;100145.91;5113826;28;20062;-81
2023/04/13 04:47:47;;;;;;;9.20;6.30;;;;;;;6.74;100.00;100155.22;5114156;28;20073;-82
2023/04/13 04:50:13;;;;;;;14.15;8.07;;;;;;;6.30;100.00;100078.22;5114240;27;20031;-74
2023/04/13 04:52:39;;;;;;;13.27;7.18;;;;;;;7.17;100.00;100149.72;5134400;27;20107;-73
2023/04/13 04:55:05;;;;;;;12.70;7.72;;;;;;;6.54;100.00;100058.59;5115779;27;20023;-76
2023/04/13 04:57:34;;;;;;;12.85;7.43;;;;;;;7.15;100.00;100126.16;5133697;27;20019;-76
2023/04/13 05:00:00;;;;;;;12.10;7.25;;;;;;;7.27;100.00;100156.34;5116654;27;20034;-76
2023/04/13 05:02:26;;;;;;;12.50;8.23;;;;;;;7.27;100.00;100159.69;5116193;27;20039;-76
2023/04/13 05:04:53;;;;;;;12.88;8.77;;;;;;;7.37;100.00;100157.91;5115102;27;20023;-76
2023/04/13 05:07:18;;;;;;;12.80;9.63;;;;;;;7.54;100.00;100121.44;5134210;27;20023;-74
2023/04/13 05:09:44;;;;;;;14.43;9.00;;;;;;;7.70;100.00;100097.59;5134444;27;20065;-75
2023/04/13 05:12:10;;;;;;;15.07;9.68;;;;;;;8.15;100.00;100138.22;5113831;27;20027;-74
2023/04/13 05:14:36;;;;;;;12.80;9.73;;;;;;;8.17;100.00;100091.78;4776592;27;10000585;-76
2023/04/13 05:17:02;;;;;;;15.98;10.77;;;;;;;8.22;100.00;100138.09;5130614;27;20045;-75
2023/04/13 05:19:27;;;;;;;16.30;10.35;;;;;;;8.25;100.00;100092.53;5133166;27;20066;-73
2023/04/13 05:21:53;;;;;;;14.52;9.02;;;;;;;8.86;100.00;100142.94;5132597;27;20053;-75
2023/04/13 05:24:18;;;;;;;12.27;9.23;;;;;;;9.06;100.00;100142.56;5114470;27;20815;-77
2023/04/13 05:26:44;;;;;;;13.88;8.77;;;;;;;9.32;100.00;100140.34;5114288;27;20524;-76
2023/04/13 05:29:09;;;;;;;10.93;7.28;;;;;;;9.27;100.00;100117.59;5132973;27;20038;-75
2023/04/13 05:31:34;;;;;;;12.93;7.30;;;;;;;9.18;100.00;100137.25;5131196;27;20035;-76
2023/04/13 05:34:00;;;;;;;14.25;7.70;;;;;;;9.27;100.00;100079.56;5114057;27;20023;-76
2023/04/13 05:36:28;;;;;;;12.60;6.50;;;;;;;9.52;100.00;100079.88;5133195;27;20035;-75
2023/04/13 05:38:55;;;;;;;9.60;6.70;;;;;;;9.71;100.00;100134.44;5114083;27;20473;-76
2023/04/13 05:41:21;;;;;;;11.45;6.70;;;;;;;10.08;100.00;100120.03;5133137;27;20050;-75
2023/04/13 05:43:48;;;;;;;10.15;6.43;;;;;;;10.11;100.00;100114.91;5114754;27;20182;-75
2023/04/13 05:46:14;;;;;;;15.60;7.72;;;;;;;10.25;100.00;100124.75;5113972;27;20118;-77
2023/04/13 05:48:42;;;;;;;14.15;10.07;;;;;;;10.04;100.00;100037.16;5131862;27;20104;-76
2023/04/13 05:51:07;;;;;;;25.58;14.18;;;;;;;10.28;100.00;100112.78;5132296;27;20050;-77
2023/04/13 05:53:33;;;;;;;17.95;10.77;;;;;;;10.51;100.00;100108.84;5132269;27;20481;-76
2023/04/13 05:55:58;;;;;;;12.25;7.50;;;;;;;10.55;100.00;100107.88;5113695;27;20059;-75
2023/04/13 05:58:25;;;;;;;12.35;8.32;;;;;;;9.87;100.00;100013.03;5113802;27;20454;-73
2023/04/13 06:00:51;;;;;;;13.70;9.18;;;;;;;10.85;100.00;100102.00;5131998;27;20027;-73
2023/04/13 06:03:19;;;;;;;10.20;7.50;;;;;;;10.75;100.00;100040.41;5114597;27;20035;-74
2023/04/13 06:05:45;;;;;;;13.20;6.95;;;;;;;11.55;100.00;100078.72;5111409;28;20028;-74
2023/04/13 06:08:12;;;;;;;13.10;6.53;;;;;;;10.58;100.00;100051.91;5092988;28;20028;-72
2023/04/13 06:10:37;;;;;;;9.75;6.32;;;;;;;11.62;100.00;100062.41;5111117;28;20425;-74
2023/04/13 06:13:03;;;;;;;10.45;6.43;;;;;;;11.26;100.00;99994.78;5092672;28;20031;-73
2023/04/13 06:15:29;;;;;;;10.65;6.65;;;;;;;12.32;100.00;100032.94;5091561;28;20032;-74
2023/04/13 06:17:55;;;;;;;9.88;6.20;;;;;;;12.24;100.00;99990.75;5093510;28;20028;-75
2023/04/13 06:20:20;;;;;;;7.95;5.78;;;;;;;11.49;100.00;99941.44;5107561;28;20028;-74
2023/04/13 06:22:46;;;;;;;6.97;4.43;;;;;;;10.40;100.00;100081.16;5110402;28;20065;-73
2023/04/13 06:25:12;;;;;;;7.72;4.70;;;;;;;11.83;100.00;100097.41;5093177;28;20750;-74
2023/04/13 06:27:38;;;;;;;4.88;3.00;;;;;;;10.55;100.00;100045.19;5092908;28;20027;-74
2023/04/13 06:30:07;;;;;;;5.63;3.13;;;;;;;11.92;100.00;100109.03;5113640;27;20030;-75
2023/04/13 06:32:32;;;;;;;6.22;3.35;;;;;;;12.32;100.00;100108.59;5092860;28;20036;-74
2023/04/13 06:34:57;;;;;;;6.15;3.38;;;;;;;12.60;100.00;100053.19;5092931;28;20038;-73
2023/04/13 06:37:23;;;;;;;4.90;2.92;;;;;;;11.57;100.00;100048.97;5093009;28;20032;-74
2023/04/13 06:39:48;;;;;;;5.50;3.47;;;;;;;13.16;100.00;100059.69;5093074;28;20027;-74
2023/04/13 06:42:14;;;;;;;5.45;3.15;;;;;;;13.20;100.00;99991.47;5093341;28;20023;-75
2023/04/13 06:44:40;;;;;;;5.57;3.67;;;;;;;12.64;100.00;100011.41;5093414;28;20028;-76
2023/04/13 06:47:05;;;;;;;7.47;4.50;;;;;;;13.35;100.00;99988.34;5111473;28;20035;-74
2023/04/13 06:49:32;;;;;;;7.65;3.80;;;;;;;13.73;100.00;99957.81;5111753;28;20115;-76
2023/04/13 06:51:58;;;;;;;5.43;3.30;;;;;;;13.70;100.00;99886.41;5093477;28;20146;-76
2023/04/13 06:54:23;;;;;;;5.82;3.67;;;;;;;13.96;100.00;99899.81;5112095;28;20099;-76
2023/04/13 06:56:49;;;;;;;6.63;3.80;;;;;;;14.01;100.00;99867.19;5111335;28;20055;-74
2023/04/13 06:59:14;;;;;;;6.88;3.40;;;;;;;14.70;100.00;99833.31;5111354;28;20019;-73
2023/04/13 07:01:47;;;;;;;6.75;3.67;;;;;;;14.56;100.00;99751.28;5110871;28;20035;-74
2023/04/13 07:04:12;;;;;;;6.25;3.55;;;;;;;14.01;100.00;99724.03;5108408;28;20111;-74
2023/04/13 07:06:37;;;;;;;5.72;3.63;;;;;;;14.56;100.00;99718.84;5127064;28;20478;-74
2023/04/13 07:09:03;;;;;;;5.85;3.95;;;;;;;15.01;100.00;99695.28;5110808;28;20024;-72
2023/04/13 07:11:28;;;;;;;5.63;3.40;;;;;;;14.03;100.00;99631.06;5092155;28;20036;-74
2023/04/13 07:13:54;;;;;;;10.23;4.97;;;;;;;15.14;100.00;99703.16;5127146;28;20481;-74
2023/04/13 07:16:19;;;;;;;5.95;3.83;;;;;;;14.68;100.00;99661.13;5110864;28;20160;-74
2023/04/13 07:18:45;;;;;;;8.93;5.53;;;;;;;14.22;100.00;99583.25;5093083;28;20104;-73
2023/04/13 07:21:12;;;;;;;6.88;4.00;;;;;;;14.67;100.00;99582.72;5111302;28;20539;-74
2023/04/13 07:23:37;;;;;;;5.55;4.07;;;;;;;14.35;100.00;99584.34;5109840;28;20036;-74
2023/04/13 07:26:05;;;;;;;7.93;4.40;;;;;;;15.56;100.00;99485.75;5110458;28;20043;-74
2023/04/13 07:28:30;;;;;;;8.52;5.07;;;;;;;16.19;100.00;99463.25;5114164;28;20039;-73
2023/04/13 07:30:55;;;;;;;7.50;4.60;;;;;;;16.16;100.00;99441.16;5112795;28;20047;-74
2023/04/13 07:33:21;;;;;;;13.27;6.78;;;;;;;15.50;100.00;99476.66;5095922;28;20496;-74
2023/04/13 07:35:49;;;;;;;12.68;7.18;;;;;;;15.82;100.00;99389.41;5113290;28;20035;-73
2023/04/13 07:38:14;;;;;;;10.82;6.82;;;;;;;15.97;100.00;99376.50;5114952;28;20032;-73
2023/04/13 07:40:40;;;;;;;20.70;13.15;;;;;;;14.73;100.00;99437.41;5130443;27;20028;-74
2023/04/13 07:43:05;;;;;;;13.45;8.30;;;;;;;16.06;100.00;99386.22;5114122;28;20049;-74
2023/04/13 07:45:31;;;;;;;12.75;7.10;;;;;;;16.25;100.00;99366.25;5095928;28;20031;-73
2023/04/13 07:47:57;;;;;;;10.23;5.57;;;;;;;16.34;100.00;99468.28;5113509;28;20475;-73
2023/04/13 07:50:22;;;;;;;7.03;4.32;;;;;;;16.10;100.00;99453.56;5095609;28;20060;-74
2023/04/13 07:52:48;;;;;;;6.15;3.25;;;;;;;15.87;100.00;99543.78;5096035;28;20031;-76
2023/04/13 07:55:13;;;;;;;5.50;3.13;;;;;;;16.87;100.00;99621.72;5115227;28;20032;-75
2023/04/13 07:57:39;;;;;;;6.40;3.83;;;;;;;17.43;100.00;99879.63;5096038;28;20114;-76
2023/04/13 08:00:05;;;;;;;4.55;3.35;;;;;;;16.51;100.00;99795.00;5114595;28;20482;-75
2023/04/13 08:02:32;;;;;;;4.60;2.70;;;;;;;16.56;100.00;99723.72;5095832;28;20038;-76
2023/04/13 08:04:57;;;;;;;4.72;2.75;;;;;;;16.21;100.00;99679.44;5125931;27;20035;-75
2023/04/13 08:07:23;;;;;;;3.75;2.80;;;;;;;17.22;100.00;99720.63;5115251;27;20050;-76
2023/04/13 08:09:51;;;;;;;5.50;3.03;;;;;;;15.70;100.00;99774.56;5115520;27;20043;-76
2023/04/13 08:12:17;;;;;;;3.90;2.58;;;;;;;15.84;100.00;99761.88;5130951;27;20141;-74
2023/04/13 08:14:43;;;;;;;4.13;3.00;;;;;;;16.78;100.00;99718.97;5136648;27;20128;-76
2023/04/13 08:17:09;;;;;;;7.00;3.55;;;;;;;16.89;100.00;99717.47;5116181;27;20059;-77
2023/04/13 08:19:38;;;;;;;6.57;4.05;;;;;;;17.69;100.00;99722.94;5115228;27;20157;-78
2023/04/13 08:22:03;;;;;;;4.32;2.83;;;;;;;17.47;100.00;99770.59;5112937;27;20395;-75
2023/04/13 08:24:29;;;;;;;9.82;5.25;;;;;;;18.16;100.00;99771.47;5134087;27;20027;-75
2023/04/13 08:27:02;;;;;;;8.75;4.47;;;;;;;17.97;100.00;99709.19;5115522;27;20023;-75
2023/04/13 08:29:28;;;;;;;7.35;3.33;;;;;;;17.24;100.00;99685.41;5132047;27;20027;-76
2023/04/13 08:31:55;;;;;;;6.80;4.45;;;;;;;18.40;100.00;99725.34;5115591;27;20042;-75
2023/04/13 08:34:20;;;;;;;5.20;2.60;;;;;;;18.67;100.00;99715.84;5133564;27;20019;-76
2023/04/13 08:36:46;;;;;;;5.95;2.20;;;;;;;18.09;100.00;99644.94;5115843;27;20113;-76
2023/04/13 08:39:12;;;;;;;11.52;4.40;;;;;;;17.92;100.00;99660.63;5114759;27;20436;-76
2023/04/13 08:41:39;;;;;;;10.88;2.88;;;;;;;18.18;100.00;99697.56;5115159;27;20847;-76
2023/04/13 08:44:06;;;;;;;5.95;2.30;;;;;;;17.64;100.00;99659.84;5113097;27;20027;-77
2023/04/13 08:46:33;;;;;;;20.85;9.82;;;;;;;18.23;100.00;99648.34;5115619;27;20100;-76
2023/04/13 08:49:00;;;;;;;16.13;6.32;;;;;;;18.47;100.00;99645.06;5115496;27;20031;-75
2023/04/13 08:51:28;;;;;;;5.03;2.92;;;;;;;17.62;100.00;99631.69;5112317;28;20108;-73
2023/04/13 08:53:54;;;;;;;3.00;2.15;;;;;;;18.01;100.00;99652.31;5111696;28;20418;-75
2023/04/13 08:56:21;;;;;;;6.13;2.63;;;;;;;19.05;100.00;99655.69;5111303;28;20036;-75
2023/04/13 08:58:48;;;;;;;6.20;2.17;;;;;;;19.31;100.00;99671.16;5113039;27;20043;-74
2023/04/13 09:01:15;;;;;;;4.43;2.08;;;;;;;18.45;100.00;99664.94;5112188;28;20035;-73
2023/04/13 09:03:53;;;;;;;4.65;1.90;;;;;;;19.24;100.00;99570.19;5111354;28;20083;-77
2023/04/13 09:06:31;;;;;;;4.45;2.08;;;;;;;19.06;100.00;99633.31;5122062;27;20035;-74
2023/04/13 09:08:58;;;;;;;4.22;2.72;;;;;;;16.99;100.00;99697.22;5132056;27;20043;-77
2023/04/13 09:11:24;;;;;;;7.75;2.22;;;;;;;18.92;100.00;99623.13;5133343;27;20031;-77
2023/04/13 09:13:51;;;;;;;4.88;2.47;;;;;;;17.91;100.00;99560.38;5132408;27;20130;-76
2023/04/13 09:16:19;;;;;;;5.72;2.85;;;;;;;18.54;100.00;99638.56;4762161;27;9999757;-74
2023/04/13 09:18:52;;;;;;;5.07;2.95;;;;;;;19.56;100.00;99865.41;5111502;28;20120;-75
2023/04/13 09:21:18;;;;;;;4.40;2.25;;;;;;;19.43;100.00;99788.97;5112850;28;20028;-73
2023/04/13 09:23:58;;;;;;;5.18;2.20;;;;;;;19.63;100.00;99755.72;5110715;27;20039;-75
2023/04/13 09:26:24;;;;;;;9.00;4.50;;;;;;;19.24;100.00;99675.06;5111078;28;20129;-75
2023/04/13 09:28:53;;;;;;;4.07;2.33;;;;;;;19.68;100.00;99691.75;5110903;28;20160;-75
2023/04/13 09:31:19;;;;;;;4.53;3.22;;;;;;;18.32;100.00;99694.09;5111225;28;20073;-75
2023/04/13 09:33:47;;;;;;;3.28;2.28;;;;;;;17.99;100.00;99687.59;5113124;28;20106;-76
2023/04/13 09:36:14;;;;;;;4.03;2.28;;;;;;;18.36;100.00;99660.31;5113886;27;20024;-74
2023/04/13 09:38:43;;;;;;;4.95;2.28;;;;;;;18.67;100.00;99647.16;5125826;27;20031;-75
2023/04/13 09:41:09;;;;;;;5.05;1.90;;;;;;;18.68;100.00;99553.50;5129656;27;20035;-74
2023/04/13 09:43:39;;;;;;;4.90;2.65;;;;;;;18.32;100.00;99596.31;5130811;27;20092;-75
2023/04/13 09:46:12;;;;;;;15.90;8.02;;;;;;;18.20;100.00;99618.53;5132541;27;20106;-76
2023/04/13 09:48:37;;;;;;;2.75;1.63;;;;;;;19.58;100.00;99613.34;5114941;27;20035;-76
2023/04/13 09:51:05;;;;;;;4.45;2.50;;;;;;;20.13;100.00;99607.63;5137998;27;20048;-76
2023/04/13 09:53:47;;;;;;;6.25;3.90;;;;;;;20.11;100.00;99591.41;5160958;27;20038;-76
2023/04/13 09:56:12;;;;;;;6.65;4.30;;;;;;;19.54;100.00;99513.91;5108289;27;20058;-77
2023/04/13 09:58:45;;;;;;;2.60;1.70;;;;;;;20.06;100.00;99590.94;5108895;27;20038;-79
2023/04/13 10:01:14;;;;;;;5.13;2.00;;;;;;;18.83;100.00;99564.50;5132406;27;20027;-79
2023/04/13 10:03:41;;;;;;;5.95;3.17;;;;;;;20.32;100.00;99579.53;5118004;27;20062;-75
2023/04/13 10:06:07;;;;;;;3.20;1.80;;;;;;;20.35;95.20;99527.66;5113307;27;20495;-76
2023/04/13 10:08:36;;;;;;;5.28;3.90;;;;;;;20.25;88.23;99515.56;5124788;27;20117;-76
2023/04/13 10:11:03;;;;;;;3.33;1.48;;;;;;;20.41;84.10;99501.38;5095994;27;20027;-76
2023/04/13 10:13:40;;;;;;;1.83;1.10;;;;;;;19.69;84.75;99492.16;5139494;27;20038;-75
2023/04/13 10:16:56;;;;;;;3.15;1.42;;;;;;;20.88;86.76;99526.16;5127838;27;20142;-74
2023/04/13 10:19:32;;;;;;;3.58;1.40;;;;;;;20.21;82.84;99527.88;5063952;28;20450;-76
2023/04/13 10:21:58;;;;;;;6.47;1.30;;;;;;;21.07;69.49;99515.22;5131428;27;20043;-75
2023/04/13 10:24:24;;;;;;;2.83;1.23;;;;;;;19.02;63.55;99428.31;5143908;27;20031;-76
2023/04/13 10:26:54;;;;;;;4.40;1.25;;;;;;;20.48;60.32;99466.38;5132598;27;20340;-74
2023/04/13 10:29:30;;;;;;;2.88;1.98;;;;;;;19.17;59.10;99506.31;5129825;27;20027;-75
2023/04/13 10:32:01;;;;;;;2.90;1.75;;;;;;;20.86;60.42;99476.34;5136281;27;20034;-76
2023/04/13 10:34:31;;;;;;;3.00;1.20;;;;;;;19.65;55.38;99444.31;5120991;27;20034;-75
2023/04/13 10:37:01;;;;;;;2.50;1.00;;;;;;;20.89;51.19;99476.09;5127040;27;20039;-75
2023/04/13 10:39:30;;;;;;;4.35;1.88;;;;;;;19.98;56.94;99487.44;5134742;27;20032;-76
2023/04/13 10:42:03;;;;;;;4.00;1.23;;;;;;;19.56;56.05;99500.91;5134299;27;20033;-75
2023/04/13 10:44:44;;;;;;;1.73;1.20;;;;;;;21.15;56.00;99489.59;5133827;27;20049;-76
2023/04/13 10:47:11;;;;;;;3.35;1.35;;;;;;;20.37;51.67;99505.13;5152497;27;20027;-77
2023/04/13 10:49:37;;;;;;;2.42;1.08;;;;;;;21.19;51.43;99491.00;5132397;27;20136;-75
2023/04/13 10:52:03;;;;;;;3.60;1.60;;;;;;;18.86;53.44;99500.72;5151064;27;20111;-75
2023/04/13 10:54:29;;;;;;;4.35;1.58;;;;;;;19.96;53.78;99489.31;5133397;27;20026;-75
2023/04/13 10:57:05;;;;;;;2.67;1.50;;;;;;;21.81;49.31;99478.22;5151580;27;20107;-78
2023/04/13 10:59:52;;;;;;;4.10;1.70;;;;;;;21.52;54.33;99480.53;5134261;27;20047;-76
2023/04/13 11:02:19;;;;;;;3.85;1.42;;;;;;;21.71;56.67;99467.72;5134872;27;20026;-76
2023/04/13 11:04:47;;;;;;;3.17;1.33;;;;;;;20.21;48.74;99471.06;5132998;27;20125;-76
2023/04/13 11:07:14;;;;;;;2.00;1.20;;;;;;;19.68;50.79;99432.94;5128864;27;20556;-76
2023/04/13 11:09:42;;;;;;;4.10;1.30;;;;;;;19.55;45.88;99451.06;5117507;27;20039;-75
2023/04/13 11:12:07;;;;;;;2.38;1.83;;;;;;;22.02;46.02;99466.91;5120092;27;20042;-76
2023/04/13 11:14:35;;;;;;;4.10;1.67;;;;;;;20.85;42.83;99435.94;5127902;27;20132;-74
2023/04/13 11:17:01;;;;;;;3.05;1.60;;;;;;;20.90;46.11;99477.75;5136806;27;20885;-75
2023/04/13 11:19:26;;;;;;;4.13;1.60;;;;;;;20.03;46.44;99425.13;5137736;27;20026;-79
2023/04/13 11:21:54;;;;;;;4.82;1.50;;;;;;;19.80;46.27;99432.03;5155631;27;20034;-77
2023/04/13 11:24:25;;;;;;;2.88;1.50;;;;;;;20.59;46.88;99463.81;5137508;27;20027;-77
2023/04/13 11:26:51;;;;;;;2.22;1.30;;;;;;;20.38;44.60;99407.81;5117674;27;20065;-78
2023/04/13 11:29:17;;;;;;;1.90;1.33;;;;;;;20.15;45.57;99422.44;5113881;28;20528;-79
2023/04/13 11:31:43;;;;;;;4.15;2.13;;;;;;;20.78;47.05;99457.22;5126362;27;20019;-76
2023/04/13 11:34:10;;;;;;;3.80;1.30;;;;;;;20.89;47.28;99442.50;5134418;27;20758;-76
2023/04/13 11:36:37;;;;;;;2.55;1.15;;;;;;;21.50;47.38;99446.19;5116678;27;20114;-74
2023/04/13 11:39:06;;;;;;;3.25;1.27;;;;;;;20.58;50.18;99443.28;5134515;27;20495;-76
2023/04/13 11:41:32;;;;;;;3.00;2.00;;;;;;;20.88;48.86;99429.72;5117096;27;20027;-76
2023/04/13 11:44:01;;;;;;;5.60;3.90;;;;;;;20.87;51.40;99394.47;5116389;27;20492;-77
2023/04/13 11:46:27;;;;;;;3.33;1.23;;;;;;;21.27;48.32;99393.75;5116606;27;20035;-76
2023/04/13 11:48:54;;;;;;;5.22;2.88;;;;;;;21.70;47.52;99435.03;5115582;27;20111;-76